Time;durP1;ratioP1;P1;durP2;ratioP2;P2;SDS_P1;SDS_P2;PMS_P1;PMS_P2;Temp;Humidity;BMP_temperature;BMP_pressure;BME280_temperature;BME280_humidity;BME280_pressure;Samples;Min_cycle;Max_cycle;Signal;HPM_P1;HPM_P2
2023/03/11 00:03:23;;;;;;;;;;;16.40;56.90;;;;;;10193180;28;94551;-66
2023/03/11 00:08:25;;;;;;;;;;;16.30;56.90;;;;;;10212979;28;93518;-66
2023/03/11 00:13:27;;;;;;;;;;;16.30;56.80;;;;;;10210471;28;95908;-66
2023/03/11 00:18:30;;;;;;;;;;;16.20;56.70;;;;;;10213455;28;93469;-66
2023/03/11 00:23:34;;;;;;;;;;;16.20;56.70;;;;;;10213590;28;94473;-66
2023/03/11 00:28:36;;;;;;;;;;;16.20;56.70;;;;;;10213275;28;93739;-66
2023/03/11 00:33:38;;;;;;;;;;;16.20;56.60;;;;;;10195733;28;94325;-66
2023/03/11 00:38:39;;;;;;;;;;;16.10;56.50;;;;;;10213141;28;93475;-66
2023/03/11 00:43:42;;;;;;;;;;;16.10;56.50;;;;;;10195357;28;93670;-65
2023/03/11 00:48:44;;;;;;;;;;;16.10;56.50;;;;;;10212289;28;93000;-66
2023/03/11 00:53:45;;;;;;;;;;;16.10;56.50;;;;;;10196117;28;94189;-66
2023/03/11 00:58:47;;;;;;;;;;;16.00;56.50;;;;;;10194751;28;94811;-66
2023/03/11 01:03:48;;;;;;;;;;;16.10;56.50;;;;;;10191424;28;96822;-66
2023/03/11 01:08:50;;;;;;;;;;;16.00;56.50;;;;;;10212778;28;93919;-66
2023/03/11 01:13:52;;;;;;;;;;;16.00;56.50;;;;;;10209789;28;93320;-66
2023/03/11 01:18:53;;;;;;;;;;;16.00;56.40;;;;;;10210767;28;93433;-66
2023/03/11 01:23:55;;;;;;;;;;;16.00;56.40;;;;;;10194256;28;92601;-66
2023/03/11 01:28:57;;;;;;;;;;;15.90;56.20;;;;;;10210974;28;93522;-66
2023/03/11 01:33:58;;;;;;;;;;;15.90;56.20;;;;;;10210002;28;93449;-66
2023/03/11 01:39:00;;;;;;;;;;;15.90;56.10;;;;;;10211855;28;92698;-66
2023/03/11 01:44:03;;;;;;;;;;;15.90;56.10;;;;;;10210627;28;93198;-66
2023/03/11 01:49:10;;;;;;;;;;;15.90;56.20;;;;;;10210215;28;94421;-66
2023/03/11 01:54:14;;;;;;;;;;;15.90;56.10;;;;;;10173250;28;96409;-66
2023/03/11 01:59:18;;;;;;;;;;;15.90;56.10;;;;;;10210845;28;95765;-67
2023/03/11 02:04:20;;;;;;;;;;;15.90;55.90;;;;;;10209779;28;93260;-66
2023/03/11 02:09:23;;;;;;;;;;;15.90;55.60;;;;;;10210310;28;93533;-66
2023/03/11 02:14:25;;;;;;;;;;;15.90;55.60;;;;;;10210035;28;94270;-66
2023/03/11 02:19:47;;;;;;;;;;;15.90;55.50;;;;;;10192294;28;93492;-65
2023/03/11 02:24:55;;;;;;;;;;;15.90;55.70;;;;;;10191665;28;93571;-67
2023/03/11 02:29:57;;;;;;;;;;;15.80;55.50;;;;;;10193558;28;92998;-65
2023/03/11 02:34:59;;;;;;;;;;;15.80;55.50;;;;;;10209064;28;93449;-66
2023/03/11 02:40:32;;;;;;;;;;;15.80;55.50;;;;;;10208275;28;93077;-66
2023/03/11 02:45:34;;;;;;;;;;;15.80;55.50;;;;;;10206272;28;95884;-66
2023/03/11 02:50:36;;;;;;;;;;;15.80;55.30;;;;;;10207756;28;93689;-66
2023/03/11 02:55:38;;;;;;;;;;;15.80;55.50;;;;;;10209105;28;94630;-66
2023/03/11 03:00:39;;;;;;;;;;;15.80;55.50;;;;;;10207733;28;93476;-66
2023/03/11 03:05:41;;;;;;;;;;;15.80;55.30;;;;;;10209072;28;93050;-65
2023/03/11 03:10:43;;;;;;;;;;;15.80;55.10;;;;;;10208376;28;97063;-66
2023/03/11 03:15:45;;;;;;;;;;;15.80;55.00;;;;;;10207419;28;94422;-65
2023/03/11 03:20:47;;;;;;;;;;;15.80;54.80;;;;;;10208179;28;93788;-66
2023/03/11 03:25:48;;;;;;;;;;;15.80;54.80;;;;;;10207635;28;94738;-66
2023/03/11 03:30:50;;;;;;;;;;;15.80;54.80;;;;;;10206605;28;93407;-66
2023/03/11 03:35:52;;;;;;;;;;;15.70;54.80;;;;;;10204220;28;96832;-63
2023/03/11 03:40:53;;;;;;;;;;;15.70;54.80;;;;;;10207714;28;94601;-66
2023/03/11 03:46:00;;;;;;;;;;;15.70;55.10;;;;;;10207242;28;94236;-66
2023/03/11 03:51:03;;;;;;;;;;;15.70;55.20;;;;;;10207806;28;94198;-66
2023/03/11 03:56:09;;;;;;;;;;;15.60;55.10;;;;;;10206422;28;94423;-66
2023/03/11 04:01:11;;;;;;;;;;;15.60;55.10;;;;;;10206748;28;93561;-66
2023/03/11 04:06:13;;;;;;;;;;;15.60;54.90;;;;;;10189137;28;94364;-66
2023/03/11 04:11:15;;;;;;;;;;;15.60;54.90;;;;;;10189393;28;92644;-66
2023/03/11 04:16:18;;;;;;;;;;;15.60;54.50;;;;;;10206533;28;93634;-66
2023/03/11 04:21:20;;;;;;;;;;;15.60;55.00;;;;;;10204979;28;93498;-66
2023/03/11 04:26:22;;;;;;;;;;;15.60;55.00;;;;;;10203085;28;95773;-66
2023/03/11 04:31:23;;;;;;;;;;;15.60;54.80;;;;;;10205101;28;92726;-66
2023/03/11 04:36:25;;;;;;;;;;;15.60;54.70;;;;;;10207319;28;93318;-66
2023/03/11 04:41:27;;;;;;;;;;;15.60;54.70;;;;;;10205724;28;93483;-66
2023/03/11 06:04:19;;;;;;;;;;;15.90;54.70;;;;;;10193643;28;92947;-72
2023/03/11 06:09:20;;;;;;;;;;;16.20;54.10;;;;;;10212099;28;93643;-72
2023/03/11 06:14:22;;;;;;;;;;;16.30;53.70;;;;;;10208380;28;93625;-73
2023/03/11 06:19:24;;;;;;;;;;;16.40;53.60;;;;;;10192327;28;94790;-73
2023/03/11 06:24:26;;;;;;;;;;;16.50;53.40;;;;;;10206621;28;96497;-73
2023/03/11 06:29:28;;;;;;;;;;;16.60;53.20;;;;;;10210271;28;94398;-73
2023/03/11 06:34:30;;;;;;;;;;;16.70;53.10;;;;;;10208468;28;93217;-73
2023/03/11 06:39:32;;;;;;;;;;;16.70;53.00;;;;;;10206816;28;93161;-73
2023/03/11 06:44:33;;;;;;;;;;;16.80;53.00;;;;;;10191922;28;93416;-73
2023/03/11 06:49:39;;;;;;;;;;;16.90;53.00;;;;;;10204436;28;93766;-73
2023/03/11 06:54:41;;;;;;;;;;;16.90;52.90;;;;;;10208633;28;94295;-73
2023/03/11 06:59:43;;;;;;;;;;;16.90;53.00;;;;;;10191142;28;92590;-65
2023/03/11 07:04:47;;;;;;;;;;;16.90;53.10;;;;;;10206669;28;93262;-65
2023/03/11 07:09:49;;;;;;;;;;;16.80;53.20;;;;;;10208012;28;92555;-72
2023/03/11 07:14:55;;;;;;;;;;;16.80;53.40;;;;;;10188125;28;96930;-73
2023/03/11 07:19:56;;;;;;;;;;;16.80;53.50;;;;;;10208036;28;92522;-73
2023/03/11 07:24:58;;;;;;;;;;;16.80;53.60;;;;;;10206690;28;92475;-73
2023/03/11 07:30:01;;;;;;;;;;;16.70;53.70;;;;;;10207724;28;93089;-73
2023/03/11 07:35:02;;;;;;;;;;;16.70;54.00;;;;;;10207404;28;93570;-73
2023/03/11 07:40:04;;;;;;;;;;;16.70;54.20;;;;;;10207113;28;93484;-73
2023/03/11 07:45:06;;;;;;;;;;;16.80;54.20;;;;;;10207874;28;93879;-73
2023/03/11 07:50:08;;;;;;;;;;;17.00;54.20;;;;;;10208411;28;92834;-73
2023/03/11 07:55:10;;;;;;;;;;;17.20;54.00;;;;;;10208061;28;93409;-73
2023/03/11 08:00:12;;;;;;;;;;;17.30;53.70;;;;;;10190580;28;93283;-73
2023/03/11 08:05:14;;;;;;;;;;;17.50;53.40;;;;;;10203508;28;95817;-73
2023/03/11 08:10:16;;;;;;;;;;;17.60;53.20;;;;;;10206638;28;94335;-73
2023/03/11 08:15:17;;;;;;;;;;;17.70;53.20;;;;;;10207225;28;94699;-73
2023/03/11 08:20:19;;;;;;;;;;;17.70;53.10;;;;;;10205141;28;93404;-73
2023/03/11 08:25:21;;;;;;;;;;;17.80;53.00;;;;;;10211855;28;93339;-73
2023/03/11 08:30:23;;;;;;;;;;;17.90;52.90;;;;;;10213488;28;93780;-72
2023/03/11 08:35:25;;;;;;;;;;;18.00;52.80;;;;;;10212463;28;93374;-73
2023/03/11 08:40:27;;;;;;;;;;;17.90;52.90;;;;;;10216127;28;93508;-73
2023/03/11 08:45:29;;;;;;;;;;;17.80;53.10;;;;;;10213999;28;94565;-72
2023/03/11 08:50:31;;;;;;;;;;;17.80;53.30;;;;;;10212114;28;94506;-72
2023/03/11 08:55:48;;;;;;;;;;;17.90;53.40;;;;;;10210245;28;96904;-71
2023/03/11 09:00:50;;;;;;;;;;;17.90;53.40;;;;;;10212408;28;92747;-71
2023/03/11 09:05:55;;;;;;;;;;;18.00;53.20;;;;;;10211619;28;93279;-71
2023/03/11 09:10:57;;;;;;;;;;;18.00;53.20;;;;;;10212830;28;93913;-73
2023/03/11 09:15:59;;;;;;;;;;;18.00;53.20;;;;;;10211795;28;93492;-73
2023/03/11 09:21:00;;;;;;;;;;;17.90;53.30;;;;;;10211061;28;93246;-69
2023/03/11 09:26:02;;;;;;;;;;;18.00;53.70;;;;;;10210305;28;93960;-71
2023/03/11 09:31:04;;;;;;;;;;;18.00;55.00;;;;;;10212480;28;93908;-71
2023/03/11 09:36:06;;;;;;;;;;;18.20;54.80;;;;;;10209234;28;92705;-70
2023/03/11 09:41:14;;;;;;;;;;;18.40;54.10;;;;;;10211387;28;93361;-70
2023/03/11 09:46:24;;;;;;;;;;;18.50;54.10;;;;;;10208335;28;95099;-73
2023/03/11 09:51:31;;;;;;;;;;;18.60;54.50;;;;;;10209799;28;93546;-72
2023/03/11 09:56:34;;;;;;;;;;;18.50;54.60;;;;;;10210030;28;93954;-71
2023/03/11 10:01:39;;;;;;;;;;;18.50;54.80;;;;;;10209531;28;94356;-73
2023/03/11 10:06:43;;;;;;;;;;;18.50;55.20;;;;;;10209733;28;93491;-72
2023/03/11 10:11:50;;;;;;;;;;;18.50;55.20;;;;;;10208898;28;93432;-72
2023/03/11 10:17:00;;;;;;;;;;;18.40;55.30;;;;;;10192301;28;114754;-72
2023/03/11 10:22:10;;;;;;;;;;;18.30;55.30;;;;;;10209699;28;92633;-72
2023/03/11 10:27:14;;;;;;;;;;;18.20;55.50;;;;;;10209742;28;95342;-72
2023/03/11 10:32:19;;;;;;;;;;;18.20;56.50;;;;;;10209814;28;93478;-72
2023/03/11 10:37:26;;;;;;;;;;;18.10;55.50;;;;;;10189034;28;97333;-73
2023/03/11 10:42:46;;;;;;;;;;;18.10;55.80;;;;;;10208486;28;94040;-73
2023/03/11 10:47:48;;;;;;;;;;;18.00;55.70;;;;;;10206558;28;93641;-75
2023/03/11 10:53:09;;;;;;;;;;;17.90;55.60;;;;;;10208609;28;93507;-74
2023/03/11 10:58:12;;;;;;;;;;;18.00;55.50;;;;;;10189909;28;93509;-73
2023/03/11 11:03:17;;;;;;;;;;;18.10;55.30;;;;;;10208878;28;94492;-73
2023/03/11 11:08:18;;;;;;;;;;;18.20;55.00;;;;;;10207787;28;94274;-73
2023/03/11 11:13:24;;;;;;;;;;;18.30;54.80;;;;;;10208483;28;93227;-72
2023/03/11 11:18:27;;;;;;;;;;;18.30;54.50;;;;;;10190034;28;93398;-73
2023/03/11 11:23:55;;;;;;;;;;;18.30;54.40;;;;;;10207125;28;93267;-72
2023/03/11 11:29:12;;;;;;;;;;;18.20;54.30;;;;;;10201771;28;95732;-72
2023/03/11 11:34:30;;;;;;;;;;;18.10;54.40;;;;;;10189619;28;93472;-73
2023/03/11 11:39:41;;;;;;;;;;;18.00;54.60;;;;;;10206280;28;93708;-67
2023/03/11 11:44:45;;;;;;;;;;;17.90;54.70;;;;;;10188353;28;93764;-66
2023/03/11 11:50:09;;;;;;;;;;;17.90;55.30;;;;;;10206201;28;93159;-67
2023/03/11 11:55:25;;;;;;;;;;;17.80;55.40;;;;;;10207475;28;94497;-66
2023/03/11 12:00:36;;;;;;;;;;;17.80;55.60;;;;;;10211993;28;92865;-66
2023/03/11 12:05:49;;;;;;;;;;;17.80;55.70;;;;;;10214208;28;93592;-66
2023/03/11 12:11:01;;;;;;;;;;;17.80;55.80;;;;;;10213752;28;94670;-66
2023/03/11 12:16:03;;;;;;;;;;;17.80;55.90;;;;;;10195344;28;93554;-66
2023/03/11 12:21:26;;;;;;;;;;;17.80;55.90;;;;;;10210620;28;96032;-67
2023/03/11 12:26:32;;;;;;;;;;;17.90;55.90;;;;;;10212404;28;94407;-66
2023/03/11 12:31:37;;;;;;;;;;;17.90;55.80;;;;;;10213127;28;93682;-64
2023/03/11 12:36:43;;;;;;;;;;;17.90;56.10;;;;;;10212442;28;93442;-69
2023/03/11 12:41:45;;;;;;;;;;;17.90;58.30;;;;;;10211662;28;93494;-70
2023/03/11 12:46:53;;;;;;;;;;;17.90;58.30;;;;;;10211679;28;94631;-71
2023/03/11 12:52:00;;;;;;;;;;;17.90;58.20;;;;;;10211477;28;93558;-66
2023/03/11 12:57:04;;;;;;;;;;;18.00;58.10;;;;;;10213058;28;92832;-66
2023/03/11 13:02:08;;;;;;;;;;;18.00;59.00;;;;;;10211385;28;93399;-72
2023/03/11 13:07:13;;;;;;;;;;;17.90;57.50;;;;;;10212797;28;94451;-73
2023/03/11 13:12:33;;;;;;;;;;;17.90;57.50;;;;;;10210200;28;95610;-73
2023/03/11 13:17:35;;;;;;;;;;;17.80;57.40;;;;;;10212707;28;94249;-72
2023/03/11 13:22:40;;;;;;;;;;;17.80;57.50;;;;;;10211888;28;93275;-72
2023/03/11 13:27:42;;;;;;;;;;;17.80;57.60;;;;;;10210298;28;93739;-73
2023/03/11 13:32:52;;;;;;;;;;;17.80;57.70;;;;;;10194417;28;92835;-73
2023/03/11 13:38:12;;;;;;;;;;;17.70;57.80;;;;;;10211175;28;93401;-73
2023/03/11 13:43:21;;;;;;;;;;;17.70;58.00;;;;;;10211384;28;94418;-74
2023/03/11 13:48:23;;;;;;;;;;;17.70;58.00;;;;;;10193298;28;93693;-73
2023/03/11 13:53:28;;;;;;;;;;;17.70;58.10;;;;;;10210232;28;94540;-73
2023/03/11 13:58:30;;;;;;;;;;;17.70;58.10;;;;;;10193007;28;93378;-73
2023/03/11 14:03:34;;;;;;;;;;;17.70;58.20;;;;;;10207497;28;95821;-73
2023/03/11 14:08:37;;;;;;;;;;;17.60;57.90;;;;;;10210338;28;94484;-74
2023/03/11 14:13:43;;;;;;;;;;;17.60;57.90;;;;;;10209618;28;93302;-72
2023/03/11 14:18:45;;;;;;;;;;;17.70;58.30;;;;;;10209764;28;94483;-72
2023/03/11 14:23:48;;;;;;;;;;;17.70;58.20;;;;;;10208686;28;94577;-71
2023/03/11 14:28:51;;;;;;;;;;;17.70;58.00;;;;;;10208753;28;93483;-70
2023/03/11 14:33:54;;;;;;;;;;;17.70;58.10;;;;;;10208693;28;93455;-70
2023/03/11 14:38:56;;;;;;;;;;;17.70;58.20;;;;;;10208658;28;92301;-72
2023/03/11 14:43:58;;;;;;;;;;;17.60;58.10;;;;;;10207896;28;93754;-71
2023/03/11 14:49:00;;;;;;;;;;;17.60;58.20;;;;;;10207598;28;93448;-70
2023/03/11 14:54:07;;;;;;;;;;;17.50;58.30;;;;;;10187930;28;96226;-71
2023/03/11 14:59:11;;;;;;;;;;;17.50;58.50;;;;;;10207440;28;92857;-67
2023/03/11 15:04:26;;;;;;;;;;;17.50;58.50;;;;;;10190208;28;94337;-66
2023/03/11 15:09:28;;;;;;;;;;;17.40;58.60;;;;;;10208040;28;93177;-67
2023/03/11 15:14:31;;;;;;;;;;;17.40;58.80;;;;;;10207178;28;93417;-66
2023/03/11 15:19:37;;;;;;;;;;;17.40;58.60;;;;;;10189933;28;94348;-66
2023/03/11 15:24:38;;;;;;;;;;;17.40;58.50;;;;;;10207294;28;93647;-65
2023/03/11 15:29:48;;;;;;;;;;;17.40;58.40;;;;;;10207619;28;93819;-66
2023/03/11 15:35:11;;;;;;;;;;;17.40;58.30;;;;;;10203467;28;92534;-65
2023/03/11 15:40:18;;;;;;;;;;;17.40;59.20;;;;;;10173446;28;93641;-64
2023/03/11 15:45:20;;;;;;;;;;;17.40;58.10;;;;;;10205126;28;96929;-65
2023/03/11 15:50:24;;;;;;;;;;;17.40;58.10;;;;;;10206801;28;94925;-68
2023/03/11 15:55:35;;;;;;;;;;;17.60;57.90;;;;;;10207267;28;94599;-68
2023/03/11 16:00:39;;;;;;;;;;;17.70;57.60;;;;;;10206349;28;93461;-69
2023/03/11 16:05:40;;;;;;;;;;;17.90;57.40;;;;;;10206619;28;93632;-68
2023/03/11 16:10:42;;;;;;;;;;;18.00;57.00;;;;;;10205430;28;93426;-71
2023/03/11 16:15:45;;;;;;;;;;;18.10;56.70;;;;;;10205827;28;94304;-71
2023/03/11 16:20:51;;;;;;;;;;;18.10;56.50;;;;;;10206100;28;92764;-71
2023/03/11 16:25:55;;;;;;;;;;;18.20;56.30;;;;;;10206279;28;93618;-70
2023/03/11 16:30:57;;;;;;;;;;;18.30;56.20;;;;;;10187917;28;93515;-70
2023/03/11 16:35:59;;;;;;;;;;;18.20;56.20;;;;;;10202404;28;97993;-68
2023/03/11 16:41:01;;;;;;;;;;;18.20;56.30;;;;;;10205559;28;93648;-70
2023/03/11 16:46:03;;;;;;;;;;;18.20;56.20;;;;;;10209683;28;93534;-73
2023/03/11 16:51:05;;;;;;;;;;;18.10;56.40;;;;;;10211967;28;93116;-71
2023/03/11 16:56:06;;;;;;;;;;;18.00;56.40;;;;;;10179348;28;94447;-70
2023/03/11 17:01:10;;;;;;;;;;;18.00;56.70;;;;;;10194102;28;94271;-69
2023/03/11 17:06:12;;;;;;;;;;;17.90;56.80;;;;;;10211626;28;93354;-68
2023/03/11 17:11:18;;;;;;;;;;;17.90;56.80;;;;;;10193346;28;92078;-69
2023/03/11 17:16:20;;;;;;;;;;;17.80;57.20;;;;;;10209387;28;94493;-68
2023/03/11 17:21:22;;;;;;;;;;;18.00;57.60;;;;;;10193113;28;93700;-64
2023/03/11 17:26:25;;;;;;;;;;;18.00;57.50;;;;;;10207728;28;95850;-64
2023/03/11 17:31:26;;;;;;;;;;;18.30;58.60;;;;;;10210625;28;94800;-64
2023/03/11 17:36:28;;;;;;;;;;;18.40;59.80;;;;;;10210208;28;92890;-64
2023/03/11 17:41:30;;;;;;;;;;;18.50;62.30;;;;;;10209315;28;94494;-63
2023/03/11 17:46:34;;;;;;;;;;;18.60;60.10;;;;;;10209639;28;94062;-69
2023/03/11 17:51:36;;;;;;;;;;;18.70;59.60;;;;;;10170317;28;94764;-69
2023/03/11 17:56:37;;;;;;;;;;;18.70;60.00;;;;;;10167956;28;93633;-68
2023/03/11 18:01:39;;;;;;;;;;;18.90;59.80;;;;;;10168647;28;91826;-69
2023/03/11 18:06:42;;;;;;;;;;;19.00;59.60;;;;;;10168402;28;93675;-68
2023/03/11 18:11:43;;;;;;;;;;;19.00;60.00;;;;;;10168937;28;93411;-68
2023/03/11 18:16:45;;;;;;;;;;;19.00;60.10;;;;;;10163741;28;96843;-69
2023/03/11 18:21:47;;;;;;;;;;;19.00;60.80;;;;;;10165868;28;93505;-69
2023/03/11 18:26:48;;;;;;;;;;;18.80;60.50;;;;;;10169397;28;93325;-68
2023/03/11 18:31:50;;;;;;;;;;;18.70;60.80;;;;;;10168138;28;93468;-68
2023/03/11 18:36:52;;;;;;;;;;;18.50;61.00;;;;;;10168768;28;93690;-68
2023/03/11 18:41:53;;;;;;;;;;;18.50;62.20;;;;;;10168380;28;93859;-69
2023/03/11 18:46:55;;;;;;;;;;;18.40;61.20;;;;;;10170884;28;93943;-69
2023/03/11 18:51:57;;;;;;;;;;;18.30;61.50;;;;;;10208802;28;93781;-68
2023/03/11 18:56:59;;;;;;;;;;;18.20;61.50;;;;;;10208249;28;94542;-68
2023/03/11 19:02:01;;;;;;;;;;;18.20;61.50;;;;;;10207469;28;93437;-68
2023/03/11 19:07:03;;;;;;;;;;;18.20;61.40;;;;;;10187405;28;96625;-69
2023/03/11 19:12:04;;;;;;;;;;;18.30;61.80;;;;;;10206789;28;93520;-69
2023/03/11 19:17:06;;;;;;;;;;;18.40;61.60;;;;;;10190240;28;93116;-68
2023/03/11 19:22:08;;;;;;;;;;;18.40;61.20;;;;;;10207311;28;93695;-69
2023/03/11 19:27:10;;;;;;;;;;;18.40;60.80;;;;;;10206605;28;94281;-69
2023/03/11 19:32:12;;;;;;;;;;;18.40;60.60;;;;;;10206734;28;93558;-69
2023/03/11 19:37:15;;;;;;;;;;;18.40;60.70;;;;;;10205454;28;93445;-70
2023/03/11 19:42:17;;;;;;;;;;;18.40;60.60;;;;;;10206785;28;92862;-68
2023/03/11 19:47:19;;;;;;;;;;;18.30;60.40;;;;;;10204699;28;93217;-70
2023/03/11 19:52:22;;;;;;;;;;;18.30;60.20;;;;;;10206334;28;93316;-70
2023/03/11 19:57:23;;;;;;;;;;;18.30;60.20;;;;;;10202165;28;96030;-69
2023/03/11 20:02:25;;;;;;;;;;;18.20;60.40;;;;;;10205271;28;93657;-70
2023/03/11 20:07:27;;;;;;;;;;;18.20;60.40;;;;;;10205923;28;94554;-70
2023/03/11 20:12:28;;;;;;;;;;;18.20;60.40;;;;;;10205579;28;93602;-70
2023/03/11 20:17:30;;;;;;;;;;;18.20;60.50;;;;;;10205417;28;93824;-70
2023/03/11 20:22:32;;;;;;;;;;;18.20;60.60;;;;;;10212386;28;92815;-70
2023/03/11 20:27:34;;;;;;;;;;;18.10;60.80;;;;;;10211546;28;93458;-70
2023/03/11 20:32:36;;;;;;;;;;;18.20;60.80;;;;;;10214050;28;92961;-70
2023/03/11 20:37:38;;;;;;;;;;;18.20;60.80;;;;;;10212201;28;93329;-70
2023/03/11 20:42:41;;;;;;;;;;;18.20;60.60;;;;;;10193757;28;93474;-70
2023/03/11 20:47:43;;;;;;;;;;;18.20;60.40;;;;;;10191741;28;97083;-70
2023/03/11 20:52:45;;;;;;;;;;;18.20;60.30;;;;;;10212270;28;93497;-70
2023/03/11 20:57:47;;;;;;;;;;;18.20;60.20;;;;;;10212906;28;93681;-70
2023/03/11 21:02:48;;;;;;;;;;;18.10;60.10;;;;;;10211678;28;93091;-70
2023/03/11 21:07:51;;;;;;;;;;;18.10;60.10;;;;;;10210470;28;93967;-69
2023/03/11 21:12:52;;;;;;;;;;;18.10;60.10;;;;;;10211619;28;94387;-70
2023/03/11 21:17:54;;;;;;;;;;;18.00;60.00;;;;;;10211123;28;94537;-70
2023/03/11 21:22:56;;;;;;;;;;;18.00;60.00;;;;;;10211687;28;92711;-69
2023/03/11 21:27:58;;;;;;;;;;;17.90;60.00;;;;;;10210839;28;93176;-70
2023/03/11 21:32:59;;;;;;;;;;;17.90;60.00;;;;;;10210308;28;93285;-69
2023/03/11 21:38:01;;;;;;;;;;;17.80;60.00;;;;;;10208342;28;97018;-70
2023/03/11 21:43:03;;;;;;;;;;;17.80;60.00;;;;;;10198655;28;94528;-70
2023/03/11 21:48:07;;;;;;;;;;;17.80;60.90;;;;;;10208915;28;93403;-70
2023/03/11 21:53:09;;;;;;;;;;;17.70;59.70;;;;;;10210175;28;93780;-70
2023/03/11 21:58:11;;;;;;;;;;;17.70;59.80;;;;;;10191242;28;94674;-70
2023/03/11 22:03:13;;;;;;;;;;;17.70;59.80;;;;;;10191835;28;94793;-69
2023/03/11 22:08:15;;;;;;;;;;;17.60;59.70;;;;;;10208127;28;93605;-69
2023/03/11 22:13:17;;;;;;;;;;;17.60;59.70;;;;;;10209859;28;93831;-69
2023/03/11 22:18:19;;;;;;;;;;;17.60;59.80;;;;;;10208826;28;94446;-70
2023/03/11 22:23:20;;;;;;;;;;;17.50;59.70;;;;;;10209149;28;93279;-70
2023/03/11 22:28:22;;;;;;;;;;;17.50;59.50;;;;;;10206827;28;96497;-71
2023/03/11 22:33:24;;;;;;;;;;;17.50;59.60;;;;;;10208517;28;94476;-70
2023/03/11 22:38:26;;;;;;;;;;;17.40;59.60;;;;;;10207031;28;93641;-72
2023/03/11 22:43:28;;;;;;;;;;;17.40;59.50;;;;;;10207150;28;93440;-72
2023/03/11 22:48:30;;;;;;;;;;;17.40;59.30;;;;;;10208475;28;94306;-72
2023/03/11 22:53:32;;;;;;;;;;;17.30;59.40;;;;;;10207624;28;93116;-71
2023/03/11 22:58:33;;;;;;;;;;;17.30;59.20;;;;;;10207655;28;94380;-72
2023/03/11 23:03:35;;;;;;;;;;;17.20;59.20;;;;;;10208146;28;92549;-72
2023/03/11 23:08:37;;;;;;;;;;;17.20;59.10;;;;;;10189602;28;93465;-71
2023/03/11 23:13:39;;;;;;;;;;;17.10;59.10;;;;;;10208155;28;94157;-72
2023/03/11 23:18:42;;;;;;;;;;;17.10;59.00;;;;;;10204541;28;96608;-71
2023/03/11 23:23:44;;;;;;;;;;;17.10;59.00;;;;;;10174456;28;94751;-71
2023/03/11 23:28:46;;;;;;;;;;;17.00;58.90;;;;;;10189330;28;94495;-72
2023/03/11 23:33:48;;;;;;;;;;;17.00;58.80;;;;;;10206213;28;93806;-72
2023/03/11 23:38:50;;;;;;;;;;;16.90;58.70;;;;;;10207426;28;93102;-71
2023/03/11 23:43:51;;;;;;;;;;;16.90;58.70;;;;;;10208374;28;94762;-71
2023/03/11 23:48:53;;;;;;;;;;;16.90;58.60;;;;;;10206624;28;93502;-71
2023/03/11 23:53:55;;;;;;;;;;;16.80;58.50;;;;;;10207550;28;96000;-72
2023/03/11 23:58:57;;;;;;;;;;;16.80;58.30;;;;;;10207588;28;94044;-72
